Latest Coastal Weather Observations for Barrow Island

IDW60701

Issued at 10:32 pm WST Saturday 25 April 2015 (issued every 10 minutes, with the page automatically refreshed every 10 minutes)

About coastal observations | Map of coastal stations | Coastal observations for WA | Marine services | Other Formats
Station Details ID: 005094 Name: BARROW ISLAND AIRPORT Lat: -20.88 Lon: 115.41 Height: 6.4 m
Data from the previous 72 hours. | See also: Recent months at Barrow Island
Date/Time
WST
Temp

°C
Wind Pressure Rain
since 9am
mm
Weather Cloud Vis
km
Sea
Height
m
Swell
Dir
 
Speed
knots
Gust
knots
hPa Trend Height
m
Period
s
Dir
25/10:30pm 26.0 ENE 17 19 1014.5 - 0.0 - - - - - - -
25/10:00pm 26.1 ENE 16 19 1014.6 - 0.0 - - - - - - -
25/09:30pm 26.2 ENE 17 19 1014.4 - 0.0 - - - - - - -
25/09:00pm 26.0 ENE 18 22 1014.3 - 0.0 - - - - - - -
25/08:30pm 26.0 ENE 19 21 1014.1 - 0.0 - - - - - - -
25/08:00pm 26.2 ENE 19 22 1013.8 - 0.0 - - - - - - -
25/07:30pm 26.4 ENE 18 21 1013.5 - 0.0 - - - - - - -
25/07:00pm 26.6 ENE 20 23 1012.9 - 0.0 - - - - - - -
25/06:30pm 26.5 ENE 20 24 1012.5 - 0.0 - - - - - - -
25/06:00pm 26.6 ENE 21 23 1012.3 - 0.0 - - - - - - -
25/05:30pm 26.6 ENE 20 24 1012.2 - 0.0 - - - - - - -
25/05:00pm 26.6 ENE 21 24 1012.0 - 0.0 - - - - - - -
25/04:30pm 26.6 ENE 20 23 1012.0 - 0.0 - - - - - - -
25/04:00pm 26.8 ENE 21 24 1011.9 - 0.0 - - - - - - -
25/03:30pm 27.1 ENE 23 27 1011.8 - 0.0 - - - - - - -
25/03:00pm 27.0 ENE 24 28 1011.6 - 0.0 - - - - - - -
25/02:30pm 27.2 ENE 24 27 1011.6 - 0.0 - - - - - - -
25/02:00pm 27.2 ENE 25 30 1011.7 - 0.0 - - - - - - -
25/01:30pm 27.1 ENE 24 28 1012.2 - 0.0 - - - - - - -
25/01:00pm 27.0 ENE 23 29 1012.5 - 0.0 - - - - - - -
25/12:30pm 27.0 ENE 25 28 1012.8 - 0.0 - - - - - - -
25/12:00pm 26.7 ENE 22 27 1013.2 - 0.0 - - - - - - -
25/11:30am 26.4 ENE 24 28 1013.5 - 0.0 - - - - - - -
25/11:00am 26.3 ENE 24 29 1013.9 - 0.0 - - - - - - -
25/10:30am 26.1 ENE 24 29 1014.0 - 0.0 - - - - - - -
25/10:00am 25.9 ENE 24 28 1014.1 - 0.0 - - - - - - -
25/09:30am 25.7 ENE 24 29 1014.1 - 0.0 - - - - - - -
25/09:00am 25.4 ENE 25 31 1013.9 - 0.0 - - - - - - -
25/08:30am 25.4 ENE 25 31 1013.6 - 0.0 - - - - - - -
25/08:00am 25.2 E 25 29 1013.5 - 0.0 - - - - - - -
25/07:30am 25.2 E 25 29 1013.4 - 0.0 - - - - - - -
25/07:00am 25.4 E 25 29 1013.0 - 0.0 - - - - - - -
25/06:30am 25.4 E 24 28 1012.5 - 0.0 - - - - - - -
25/06:00am 25.6 E 21 26 1012.0 - 0.0 - - - - - - -
25/05:30am 25.7 E 19 24 1011.7 - 0.0 - - - - - - -
25/05:00am 25.9 ENE 20 24 1011.6 - 0.0 - - - - - - -
25/04:30am 25.9 ENE 21 25 1011.5 - 0.0 - - - - - - -
25/04:00am 25.9 ENE 19 23 1011.5 - 0.0 - - - - - - -
25/03:30am 25.8 E 18 22 1011.6 - 0.0 - - - - - - -
25/03:00am 25.8 E 18 23 1011.9 - 0.0 - - - - - - -
25/02:30am 25.8 E 19 22 1011.9 - 0.0 - - - - - - -
25/02:00am 25.9 E 19 22 1012.0 - 0.0 - - - - - - -
25/01:30am 25.9 E 18 21 1012.3 - 0.0 - - - - - - -
25/01:00am 25.7 E 17 20 1012.5 - 0.0 - - - - - - -
25/12:30am 25.6 E 16 19 1012.7 - 0.0 - - - - - - -
25/12:00am 25.5 E 17 20 1012.9 - 0.0 - - - - - - -
 
Date/Time
WST
Temp

°C
Wind Pressure Rain
since 9am
mm
Weather Cloud Vis
km
Sea
Height
m
Swell
Dir
 
Speed
knots
Gust
knots
hPa Trend Height
m
Period
s
Dir
24/11:30pm 25.5 E 17 20 1012.9 - 0.0 - - - - - - -
24/11:00pm 25.6 E 17 20 1013.1 - 0.0 - - - - - - -
24/10:30pm 25.4 ESE 12 15 1013.3 - 0.0 - - - - - - -
24/10:00pm 25.8 E 15 17 1013.3 - 0.0 - - - - - - -
24/09:30pm 26.0 ENE 15 18 1013.1 - 0.0 - - - - - - -
24/09:00pm 26.1 ENE 15 19 1013.0 - 0.0 - - - - - - -
24/08:30pm 26.0 NE 14 16 1012.9 - 0.0 - - - - - - -
24/08:00pm 25.7 NE 12 15 1012.6 - 0.0 - - - - - - -
24/07:30pm 25.5 NE 11 13 1012.2 - 0.0 - - - - - - -
24/07:00pm 25.9 NNE 11 13 1012.0 - 0.0 - - - - - - -
24/06:30pm 25.9 NE 11 13 1011.9 - 0.0 - - - - - - -
24/06:00pm 26.0 NNE 11 14 1011.7 - 0.0 - - - - - - -
24/05:30pm 26.0 NE 12 13 1011.6 - 0.0 - - - - - - -
24/05:00pm 26.4 NE 11 13 1011.4 - 0.0 - - - - - - -
24/04:30pm 26.5 NE 11 13 1011.3 - 0.0 - - - - - - -
24/04:00pm 26.7 NE 11 12 1011.4 - 0.0 - - - - - - -
24/03:30pm 26.5 ENE 10 11 1011.5 - 0.0 - - - - - - -
24/03:00pm 26.5 ENE 11 13 1011.6 - 0.0 - - - - - - -
24/02:30pm 26.7 NE 12 14 1011.6 - 0.0 - - - - - - -
24/02:00pm 26.4 ENE 12 15 1011.8 - 0.0 - - - - - - -
24/01:30pm 26.5 ENE 11 14 1012.2 - 0.0 - - - - - - -
24/01:00pm 26.7 E 11 12 1012.6 - 0.0 - - - - - - -
24/12:30pm 26.3 E 11 13 1012.9 - 0.0 - - - - - - -
24/12:00pm 26.1 E 12 13 1013.2 - 0.0 - - - - - - -
24/11:30am 25.6 E 12 14 1013.5 - 0.0 - - - - - - -
24/11:00am 25.0 E 15 19 1013.5 - 0.0 - - - - - - -
24/10:30am 24.7 E 16 19 1013.8 - 0.0 - - - - - - -
24/10:00am 24.5 E 15 18 1014.0 - 0.0 - - - - - - -
24/09:30am 23.7 E 17 20 1014.2 - 0.0 - - - - - - -
24/09:00am 23.8 E 20 24 1013.9 - 0.0 - - - - - - -
24/08:30am 23.9 E 22 25 1013.8 - 0.0 - - - - - - -
24/08:00am 23.7 E 19 23 1013.7 - 0.0 - - - - - - -
24/07:30am 23.2 E 18 21 1013.5 - 0.0 - - - - - - -
24/07:00am 23.3 E 16 19 1013.3 - 0.0 - - - - - - -
24/06:30am 22.9 ESE 16 20 1013.1 - 0.0 - - - - - - -
24/06:00am 23.2 ESE 17 21 1012.7 - 0.0 - - - - - - -
24/05:30am 23.5 ESE 17 20 1012.4 - 0.0 - - - - - - -
24/05:00am 23.6 ESE 18 21 1012.1 - 0.0 - - - - - - -
24/04:30am 24.0 E 17 20 1012.0 - 0.0 - - - - - - -
24/04:00am 24.1 E 17 20 1012.2 - 0.0 - - - - - - -
24/03:30am 23.9 E 15 18 1012.4 - 0.0 - - - - - - -
24/03:00am 23.9 ESE 14 16 1012.7 - 0.0 - - - - - - -
24/02:30am 24.1 ESE 14 16 1012.6 - 0.0 - - - - - - -
24/02:00am 24.7 E 16 20 1012.4 - 0.0 - - - - - - -
24/01:30am 24.4 E 15 20 1012.4 - 0.0 - - - - - - -
24/01:29am 24.5 E 15 20 1012.4 - 0.0 - - - - - - -
24/01:00am 21.8 SSW 2 3 1012.6 - 0.0 - - - - - - -
24/12:30am 21.2 WSW 4 5 1012.7 - 0.0 - - - - - - -
24/12:00am 20.7 WSW 4 4 1012.6 - 0.0 - - - - - - -
 
Date/Time
WST
Temp

°C
Wind Pressure Rain
since 9am
mm
Weather Cloud Vis
km
Sea
Height
m
Swell
Dir
 
Speed
knots
Gust
knots
hPa Trend Height
m
Period
s
Dir
23/11:30pm 21.1 WSW 3 4 1012.8 - 0.0 - - - - - - -
23/11:00pm 21.1 W 4 4 1013.1 - 0.0 - - - - - - -
23/10:30pm 21.0 WNW 4 5 1013.3 - 0.0 - - - - - - -
23/10:00pm 20.7 N 4 4 1013.2 - 0.0 - - - - - - -
23/09:30pm 21.0 CALM 0 0 1013.2 - 0.0 - - - - - - -
23/09:00pm 21.5 CALM 0 0 1013.1 - 0.0 - - - - - - -
23/08:30pm 22.6 CALM 0 0 1012.9 - 0.0 - - - - - - -
23/08:00pm 22.5 CALM 0 0 1012.7 - 0.0 - - - - - - -
23/07:30pm 22.6 CALM 0 0 1012.2 - 0.0 - - - - - - -
23/07:00pm 22.9 CALM 0 1 1012.0 - 0.0 - - - - - - -
23/06:30pm 23.6 ENE 4 5 1011.6 - 0.0 - - - - - - -
23/06:00pm 23.6 SE 5 6 1011.4 - 0.0 - - - - - - -
23/05:30pm 24.4 SE 4 5 1011.0 - 0.0 - - - - - - -
23/05:00pm 24.6 SE 4 5 1010.8 - 0.0 - - - - - - -
23/04:30pm 24.7 ESE 4 5 1010.7 - 0.0 - - - - - - -
23/04:00pm 25.1 ESE 4 5 1010.8 - 0.0 - - - - - - -
23/03:30pm 25.2 ENE 3 4 1011.0 - 0.0 - - - - - - -
23/03:00pm 25.1 E 3 4 1011.1 - 0.0 - - - - - - -
23/02:30pm 25.1 E 5 6 1011.3 - 0.0 - - - - - - -
23/02:00pm 25.1 E 5 7 1011.5 - 0.0 - - - - - - -
23/01:30pm 24.8 ESE 4 5 1011.8 - 0.0 - - - - - - -
23/01:00pm 24.5 SE 6 7 1011.9 - 0.0 - - - - - - -
23/12:30pm 24.5 E 6 8 1012.2 - 0.0 - - - - - - -
23/12:00pm 24.5 ESE 8 10 1012.7 - 0.0 - - - - - - -
23/11:30am 24.1 E 9 11 1013.1 - 0.0 - - - - - - -
23/11:00am 23.9 E 10 13 1013.4 - 0.0 - - - - - - -
23/10:30am 23.8 E 11 13 1013.5 - 0.0 - - - - - - -
23/10:00am 23.6 E 11 13 1013.5 - 0.0 - - - - - - -
23/09:30am 23.0 E 13 16 1013.5 - 0.0 - - - - - - -
23/09:00am 22.6 E 11 15 1013.5 - 0.0 - - - - - - -
23/08:30am 21.9 E 11 14 1013.2 - 0.0 - - - - - - -
23/08:00am 21.8 E 12 15 1013.0 - 0.0 - - - - - - -
23/07:30am 21.6 E 11 16 1012.7 - 0.0 - - - - - - -
23/07:00am 21.4 ESE 11 14 1012.7 - 0.0 - - - - - - -
23/06:30am 21.2 ESE 11 13 1012.3 - 0.0 - - - - - - -
23/06:00am 21.4 ESE 12 14 1012.2 - 0.0 - - - - - - -
23/05:30am 21.3 ESE 11 14 1011.9 - 0.0 - - - - - - -
23/05:00am 21.1 ESE 11 13 1011.7 - 0.0 - - - - - - -
23/04:30am 21.1 ESE 11 15 1011.5 - 0.0 - - - - - - -
23/04:00am 21.3 SE 12 14 1011.4 - 0.0 - - - - - - -
23/03:30am 21.2 ESE 12 15 1011.4 - 0.0 - - - - - - -
23/03:00am 21.4 SE 13 15 1011.3 - 0.0 - - - - - - -
23/02:30am 21.2 ESE 12 15 1011.4 - 0.0 - - - - - - -
23/02:00am 21.3 ESE 12 15 1011.6 - 0.0 - - - - - - -
23/01:30am 21.5 ESE 12 15 1011.5 - 0.0 - - - - - - -
23/01:00am 21.5 ESE 15 17 1011.7 - 0.0 - - - - - - -
23/12:30am 21.6 ESE 14 17 1011.8 - 0.0 - - - - - - -
23/12:00am 21.8 ESE 13 16 1011.9 - 0.0 - - - - - - -
 
Date/Time
WST
Temp

°C
Wind Pressure Rain
since 9am
mm
Weather Cloud Vis
km
Sea
Height
m
Swell
Dir
 
Speed
knots
Gust
knots
hPa Trend Height
m
Period
s
Dir
22/11:30pm 22.0 ESE 12 15 1012.1 - 0.0 - - - - - - -
22/11:00pm 22.4 ESE 12 14 1012.2 - 0.0 - - - - - - -

Other Formats:

Comma delimited format used in spreadsheet applications
http://www.bom.gov.au/fwo/IDW60701/IDW60701.95304.axf

JavaScript Object Notation format (JSON) in row-major order
http://www.bom.gov.au/fwo/IDW60701/IDW60701.95304.json